createdAt,value
2023-05-07T00:00:39.460Z,96.10
2023-05-07T00:01:39.458Z,96.10
2023-05-07T00:02:39.452Z,96.10
2023-05-07T00:03:39.542Z,96.10
2023-05-07T00:04:39.396Z,96.20
2023-05-07T00:05:39.370Z,96.20
2023-05-07T00:06:39.396Z,96.20
2023-05-07T00:07:39.359Z,96.30
2023-05-07T00:08:39.361Z,96.30
2023-05-07T00:09:39.323Z,96.41
2023-05-07T00:10:39.356Z,96.36
2023-05-07T00:11:39.335Z,96.36
2023-05-07T00:12:39.329Z,96.26
2023-05-07T00:13:39.282Z,96.30
2023-05-07T00:14:39.271Z,96.20
2023-05-07T00:15:39.253Z,96.20
2023-05-07T00:16:40.096Z,96.20
2023-05-07T00:17:39.321Z,96.30
2023-05-07T00:18:39.227Z,96.30
2023-05-07T00:19:39.250Z,96.41
2023-05-07T00:20:39.212Z,96.41
2023-05-07T00:21:40.690Z,96.41
2023-05-07T00:22:39.203Z,96.51
2023-05-07T00:23:39.181Z,96.51
2023-05-07T00:24:39.158Z,96.61
2023-05-07T00:25:39.183Z,96.61
2023-05-07T00:26:39.128Z,96.61
2023-05-07T00:27:39.157Z,96.61
2023-05-07T00:28:39.103Z,96.61
2023-05-07T00:29:39.112Z,96.61
2023-05-07T00:30:39.097Z,96.56
2023-05-07T00:31:39.181Z,96.56
2023-05-07T00:32:39.136Z,96.56
2023-05-07T00:33:39.107Z,96.56
2023-05-07T00:34:39.092Z,96.56
2023-05-07T00:35:39.042Z,96.56
2023-05-07T00:36:39.066Z,96.51
2023-05-07T00:37:39.074Z,96.51
2023-05-07T00:38:39.021Z,96.41
2023-05-07T00:39:39.022Z,96.30
2023-05-07T00:40:39.023Z,96.30
2023-05-07T00:41:38.993Z,96.30
2023-05-07T00:42:39.012Z,96.30
2023-05-07T00:43:39.041Z,96.30
2023-05-07T00:44:39.177Z,96.41
2023-05-07T00:45:38.973Z,96.41
2023-05-07T00:46:38.945Z,96.51
2023-05-07T00:47:38.925Z,96.55
2023-05-07T00:48:38.941Z,96.66
2023-05-07T00:49:38.898Z,96.66
2023-05-07T00:50:38.866Z,96.66
2023-05-07T00:51:38.867Z,96.66
2023-05-07T00:52:38.857Z,96.66
2023-05-07T00:53:38.880Z,96.66
2023-05-07T00:54:38.850Z,96.55
2023-05-07T00:55:38.826Z,96.60
2023-05-07T00:56:38.805Z,96.70
2023-05-07T00:57:39.836Z,96.70
2023-05-07T00:58:38.771Z,96.80
2023-05-07T00:59:38.813Z,96.80
2023-05-07T01:00:38.762Z,96.90
2023-05-07T01:01:38.796Z,97.00
2023-05-07T01:02:38.758Z,97.00
2023-05-07T01:03:38.736Z,97.11
2023-05-07T01:04:38.806Z,97.20
2023-05-07T01:05:38.757Z,97.20
2023-05-07T01:06:38.694Z,97.20
2023-05-07T01:07:38.691Z,97.35
2023-05-07T01:08:38.673Z,97.35
2023-05-07T01:09:38.694Z,97.35
2023-05-07T01:10:38.655Z,97.45
2023-05-07T01:11:38.684Z,97.45
2023-05-07T01:12:38.705Z,97.56
2023-05-07T01:13:38.638Z,97.66
2023-05-07T01:14:38.610Z,97.66
2023-05-07T01:15:38.597Z,97.66
2023-05-07T01:16:38.651Z,97.76
2023-05-07T01:17:38.611Z,97.86
2023-05-07T01:18:38.575Z,97.81
2023-05-07T01:19:38.603Z,97.81
2023-05-07T01:20:38.568Z,97.96
2023-05-07T01:21:38.569Z,97.92
2023-05-07T01:22:38.609Z,97.92
2023-05-07T01:23:38.532Z,97.92
2023-05-07T01:24:38.523Z,97.92
2023-05-07T01:25:38.509Z,97.92
2023-05-07T01:26:38.505Z,97.92
2023-05-07T01:27:38.474Z,97.92
2023-05-07T01:28:40.372Z,97.92
2023-05-07T01:29:38.464Z,97.92
2023-05-07T01:30:38.440Z,97.92
2023-05-07T01:31:38.542Z,97.92
2023-05-07T01:32:38.463Z,97.92
2023-05-07T01:33:38.431Z,97.92
2023-05-07T01:34:38.421Z,97.92
2023-05-07T01:35:38.392Z,97.92
2023-05-07T01:36:38.364Z,97.92
2023-05-07T01:37:38.364Z,97.92
2023-05-07T01:38:38.369Z,97.92
2023-05-07T01:39:38.393Z,97.81
2023-05-07T01:40:38.331Z,97.81
2023-05-07T01:41:38.501Z,97.81
2023-05-07T01:42:38.325Z,97.81
2023-05-07T01:43:38.292Z,97.81
2023-05-07T01:44:38.275Z,97.71
2023-05-07T01:45:38.309Z,97.71
2023-05-07T01:46:38.335Z,97.71
2023-05-07T01:47:38.378Z,97.66
2023-05-07T01:48:38.237Z,97.66
2023-05-07T01:49:38.245Z,97.66
2023-05-07T01:50:38.215Z,97.66
2023-05-07T01:51:38.233Z,97.66
2023-05-07T01:52:38.284Z,97.66
2023-05-07T01:53:38.222Z,97.66
2023-05-07T01:54:38.171Z,97.76
2023-05-07T01:55:38.165Z,97.76
2023-05-07T01:56:38.162Z,97.76
2023-05-07T01:57:38.150Z,97.86
2023-05-07T01:58:38.117Z,97.86
2023-05-07T01:59:39.189Z,97.86
2023-05-07T02:00:38.102Z,97.86
2023-05-07T02:01:38.142Z,97.86
2023-05-07T02:02:38.135Z,97.86
2023-05-07T02:03:38.128Z,97.86
2023-05-07T02:04:40.102Z,97.86
2023-05-07T02:05:38.100Z,97.86
2023-05-07T02:06:38.297Z,97.76
2023-05-07T02:07:38.046Z,97.76
2023-05-07T02:08:38.012Z,97.76
2023-05-07T02:09:38.018Z,97.66
2023-05-07T02:10:37.989Z,97.66
2023-05-07T02:11:38.021Z,97.66
2023-05-07T02:12:38.017Z,97.66
2023-05-07T02:13:38.025Z,97.66
2023-05-07T02:14:37.953Z,97.66
2023-05-07T02:15:37.997Z,97.66
2023-05-07T02:16:37.973Z,97.66
2023-05-07T02:17:37.991Z,97.66
2023-05-07T02:18:37.909Z,97.66
2023-05-07T02:19:37.889Z,97.66
2023-05-07T02:20:37.889Z,97.66
2023-05-07T02:21:37.893Z,97.56
2023-05-07T02:22:37.913Z,97.56
2023-05-07T02:23:37.857Z,97.56
2023-05-07T02:24:37.899Z,97.45
2023-05-07T02:25:37.862Z,97.45
2023-05-07T02:26:37.822Z,97.45
2023-05-07T02:27:37.808Z,97.35
2023-05-07T02:28:37.904Z,97.35
2023-05-07T02:29:37.821Z,97.25
2023-05-07T02:30:37.788Z,97.15
2023-05-07T02:31:37.827Z,97.15
2023-05-07T02:32:37.809Z,97.15
2023-05-07T02:33:37.747Z,97.20
2023-05-07T02:34:37.751Z,97.20
2023-05-07T02:35:37.753Z,97.20
2023-05-07T02:36:37.736Z,97.20
2023-05-07T02:37:37.695Z,97.30
2023-05-07T02:38:37.695Z,97.30
2023-05-07T02:39:37.698Z,97.30
2023-05-07T02:40:37.689Z,97.40
2023-05-07T02:41:37.664Z,97.40
2023-05-07T02:42:37.662Z,97.40
2023-05-07T02:43:37.629Z,97.40
2023-05-07T02:44:37.630Z,97.50
2023-05-07T02:45:38.895Z,97.50
2023-05-07T02:46:37.673Z,97.60
2023-05-07T02:47:37.665Z,97.60
2023-05-07T02:48:37.586Z,97.71
2023-05-07T02:49:37.573Z,97.71
2023-05-07T02:50:37.568Z,97.71
2023-05-07T02:51:37.545Z,97.71
2023-05-07T02:52:37.577Z,97.71
2023-05-07T02:53:37.533Z,97.80
2023-05-07T02:54:37.499Z,97.80
2023-05-07T02:55:37.525Z,97.85
2023-05-07T02:56:37.517Z,97.85
2023-05-07T02:57:37.484Z,97.85
2023-05-07T02:58:37.483Z,97.85
2023-05-07T02:59:37.463Z,97.85
2023-05-07T03:00:37.488Z,97.85
2023-05-07T03:01:37.641Z,97.96
2023-05-07T03:02:37.441Z,97.96
2023-05-07T03:03:37.418Z,97.96
2023-05-07T03:04:37.654Z,98.05
2023-05-07T03:05:37.382Z,98.05
2023-05-07T03:06:37.414Z,98.05
2023-05-07T03:07:37.376Z,98.05
2023-05-07T03:08:37.377Z,98.05
2023-05-07T03:09:37.366Z,98.05
2023-05-07T03:10:37.374Z,98.05
2023-05-07T03:11:37.318Z,98.05
2023-05-07T03:12:37.375Z,98.05
2023-05-07T03:13:37.306Z,98.16
2023-05-07T03:14:37.293Z,98.16
2023-05-07T03:15:37.313Z,98.05
2023-05-07T03:16:37.903Z,98.05
2023-05-07T03:17:37.344Z,98.05
2023-05-07T03:18:37.283Z,98.05
2023-05-07T03:19:37.664Z,98.10
2023-05-07T03:20:37.304Z,98.20
2023-05-07T03:21:38.184Z,98.20
2023-05-07T03:22:37.234Z,98.20
2023-05-07T03:23:37.186Z,98.30
2023-05-07T03:24:37.163Z,98.30
2023-05-07T03:25:37.152Z,98.30
2023-05-07T03:26:37.535Z,98.41
2023-05-07T03:27:37.167Z,98.41
2023-05-07T03:28:37.124Z,98.50
2023-05-07T03:29:37.122Z,98.50
2023-05-07T03:30:37.124Z,98.61
2023-05-07T03:31:37.116Z,98.61
2023-05-07T03:32:37.108Z,98.71
2023-05-07T03:33:37.180Z,98.71
2023-05-07T03:34:37.059Z,98.66
2023-05-07T03:35:37.048Z,98.66
2023-05-07T03:36:37.038Z,98.66
2023-05-07T03:37:37.021Z,98.77
2023-05-07T03:38:37.649Z,98.77
2023-05-07T03:39:37.025Z,98.77
2023-05-07T03:40:37.695Z,98.66
2023-05-07T03:41:36.980Z,98.66
2023-05-07T03:42:37.912Z,98.66
2023-05-07T03:43:36.950Z,98.66
2023-05-07T03:44:36.949Z,98.71
2023-05-07T03:45:37.323Z,98.71
2023-05-07T03:46:37.018Z,98.71
2023-05-07T03:47:37.939Z,98.71
2023-05-07T03:48:37.048Z,98.66
2023-05-07T03:49:36.922Z,98.66
2023-05-07T03:50:39.027Z,98.66
2023-05-07T03:51:36.849Z,98.71
2023-05-07T03:52:36.920Z,98.66
2023-05-07T03:53:36.856Z,98.56
2023-05-07T03:54:37.243Z,98.61
2023-05-07T03:55:37.715Z,98.71
2023-05-07T03:56:37.067Z,98.61
2023-05-07T03:57:36.927Z,98.71
2023-05-07T03:58:36.790Z,98.71
2023-05-07T03:59:36.777Z,98.71
2023-05-07T04:00:36.764Z,98.71
2023-05-07T04:01:36.768Z,98.71
2023-05-07T04:02:36.860Z,98.71
2023-05-07T04:03:36.824Z,98.71
2023-05-07T04:04:36.721Z,98.71
2023-05-07T04:05:36.748Z,98.71
2023-05-07T04:06:36.947Z,98.71
2023-05-07T04:07:37.022Z,98.71
2023-05-07T04:08:36.694Z,98.71
2023-05-07T04:09:36.832Z,98.71
2023-05-07T04:10:36.645Z,98.71
2023-05-07T04:11:36.759Z,98.71
2023-05-07T04:12:36.656Z,98.71
2023-05-07T04:13:36.625Z,98.61
2023-05-07T04:14:36.630Z,98.61
2023-05-07T04:15:36.604Z,98.71
2023-05-07T04:16:36.621Z,98.71
2023-05-07T04:17:36.623Z,98.71
2023-05-07T04:18:37.533Z,98.81
2023-05-07T04:19:36.551Z,98.81
2023-05-07T04:20:36.559Z,98.81
2023-05-07T04:21:36.544Z,98.91
2023-05-07T04:22:36.536Z,98.91
2023-05-07T04:23:37.581Z,98.91
2023-05-07T04:24:36.511Z,98.91
2023-05-07T04:25:36.482Z,98.91
2023-05-07T04:26:36.810Z,99.02
2023-05-07T04:27:36.482Z,99.02
2023-05-07T04:28:36.467Z,99.11
2023-05-07T04:29:36.459Z,99.11
2023-05-07T04:30:36.472Z,99.11
2023-05-07T04:31:36.581Z,99.11
2023-05-07T04:32:36.438Z,99.17
2023-05-07T04:33:36.393Z,99.17
2023-05-07T04:34:36.388Z,99.17
2023-05-07T04:35:36.363Z,99.17
2023-05-07T04:36:36.375Z,99.17
2023-05-07T04:37:36.385Z,99.17
2023-05-07T04:38:36.332Z,99.07
2023-05-07T04:39:36.369Z,99.07
2023-05-07T04:40:36.320Z,98.97
2023-05-07T04:41:36.329Z,98.97
2023-05-07T04:42:37.256Z,98.97
2023-05-07T04:43:36.278Z,98.97
2023-05-07T04:44:36.848Z,98.86
2023-05-07T04:45:36.340Z,98.86
2023-05-07T04:46:36.424Z,98.86
2023-05-07T04:47:36.584Z,98.86
2023-05-07T04:48:36.211Z,98.86
2023-05-07T04:49:36.216Z,98.86
2023-05-07T04:50:36.228Z,98.86
2023-05-07T04:51:36.193Z,98.86
2023-05-07T04:52:36.167Z,98.77
2023-05-07T04:53:36.160Z,98.77
2023-05-07T04:54:37.636Z,98.77
2023-05-07T04:55:36.177Z,98.77
2023-05-07T04:56:36.150Z,98.77
2023-05-07T04:57:36.119Z,98.77
2023-05-07T04:58:36.588Z,98.72
2023-05-07T04:59:36.096Z,98.72
2023-05-07T05:00:36.726Z,98.62
2023-05-07T05:01:36.153Z,98.62
2023-05-07T05:02:36.384Z,98.62
2023-05-07T05:03:36.164Z,98.62
2023-05-07T05:04:36.082Z,98.62
2023-05-07T05:05:36.022Z,98.62
2023-05-07T05:06:36.072Z,98.62
2023-05-07T05:07:37.449Z,98.52
2023-05-07T05:08:36.254Z,98.47
2023-05-07T05:09:35.991Z,98.47
2023-05-07T05:10:35.988Z,98.37
2023-05-07T05:11:37.587Z,98.37
2023-05-07T05:12:36.078Z,98.27
2023-05-07T05:13:35.955Z,98.27
2023-05-07T05:14:35.998Z,98.16
2023-05-07T05:15:35.930Z,98.16
2023-05-07T05:16:37.436Z,98.07
2023-05-07T05:17:36.051Z,97.96
2023-05-07T05:18:37.375Z,97.96
2023-05-07T05:19:35.963Z,97.86
2023-05-07T05:20:36.710Z,97.76
2023-05-07T05:21:36.018Z,97.66
2023-05-07T05:22:37.305Z,97.61
2023-05-07T05:23:35.941Z,97.51
2023-05-07T05:24:35.830Z,97.51
2023-05-07T05:25:37.308Z,97.41
2023-05-07T05:26:36.149Z,97.41
2023-05-07T05:27:35.938Z,97.31
2023-05-07T05:28:35.814Z,97.20
2023-05-07T05:29:35.814Z,97.20
2023-05-07T05:30:35.788Z,97.11
2023-05-07T05:31:35.933Z,97.11
2023-05-07T05:32:35.772Z,97.11
2023-05-07T05:33:35.751Z,97.00
2023-05-07T05:34:37.195Z,97.00
2023-05-07T05:35:36.733Z,96.90
2023-05-07T05:36:37.272Z,96.90
2023-05-07T05:37:35.706Z,96.80
2023-05-07T05:38:35.804Z,96.70
2023-05-07T05:39:35.694Z,96.55
2023-05-07T05:40:37.680Z,96.55
2023-05-07T05:41:35.640Z,96.45
2023-05-07T05:42:35.645Z,96.45
2023-05-07T05:44:47.283Z,96.25
2023-05-07T05:45:47.362Z,96.25
2023-05-07T05:46:47.255Z,96.15
2023-05-07T05:47:47.308Z,96.15
2023-05-07T05:48:47.225Z,96.04
2023-05-07T05:49:47.238Z,96.04
2023-05-07T05:50:47.247Z,96.00
2023-05-07T05:51:47.177Z,95.90
2023-05-07T05:52:47.175Z,95.90
2023-05-07T05:53:47.186Z,95.79
2023-05-07T05:54:47.457Z,95.79
2023-05-07T05:55:47.184Z,95.70
2023-05-07T05:56:47.492Z,95.65
2023-05-07T05:57:47.906Z,95.55
2023-05-07T05:58:48.722Z,95.45
2023-05-07T05:59:47.172Z,95.35
2023-05-07T06:00:48.063Z,95.25
2023-05-07T06:01:47.101Z,95.14
2023-05-07T06:02:47.313Z,95.00
2023-05-07T06:03:47.051Z,94.90
2023-05-07T06:04:47.127Z,94.79
2023-05-07T06:05:47.016Z,94.70
2023-05-07T06:06:47.042Z,94.49
2023-05-07T06:07:47.052Z,94.39
2023-05-07T06:08:46.994Z,94.29
2023-05-07T06:09:46.975Z,94.19
2023-05-07T06:10:46.978Z,94.04
2023-05-07T06:11:46.959Z,93.94
2023-05-07T06:12:46.995Z,93.84
2023-05-07T06:13:46.964Z,93.74
2023-05-07T06:14:46.917Z,93.63
2023-05-07T06:15:46.927Z,93.54
2023-05-07T06:16:48.456Z,93.43
2023-05-07T06:17:46.966Z,93.33
2023-05-07T06:18:47.715Z,93.08
2023-05-07T06:19:46.910Z,92.99
2023-05-07T06:20:46.846Z,92.79
2023-05-07T06:21:48.851Z,92.68
2023-05-07T06:22:46.838Z,92.48
2023-05-07T06:23:46.928Z,92.18
2023-05-07T06:24:46.856Z,92.08
2023-05-07T06:25:48.274Z,91.87
2023-05-07T06:26:48.242Z,91.77
2023-05-07T06:27:46.850Z,91.67
2023-05-07T06:28:48.259Z,91.47
2023-05-07T06:29:47.793Z,91.37
2023-05-07T06:30:46.813Z,91.37
2023-05-07T06:31:46.790Z,91.27
2023-05-07T06:32:46.952Z,91.12
2023-05-07T06:33:46.782Z,91.02
2023-05-07T06:34:46.795Z,90.92
2023-05-07T06:35:46.758Z,90.82
2023-05-07T06:36:47.529Z,90.62
2023-05-07T06:37:46.788Z,90.62
2023-05-07T06:38:46.846Z,90.62
2023-05-07T06:39:46.693Z,90.52
2023-05-07T06:40:46.702Z,90.62
2023-05-07T06:41:48.604Z,90.47
2023-05-07T06:42:46.650Z,90.47
2023-05-07T06:43:46.702Z,90.37
2023-05-07T06:44:46.658Z,90.27
2023-05-07T06:45:46.706Z,90.17
2023-05-07T06:46:46.877Z,90.17
2023-05-07T06:47:46.720Z,90.07
2023-05-07T06:48:46.549Z,90.07
2023-05-07T06:49:46.692Z,89.97
2023-05-07T06:50:46.546Z,89.87
2023-05-07T06:51:48.147Z,89.66
2023-05-07T06:52:48.969Z,89.66
2023-05-07T06:53:46.596Z,89.52
2023-05-07T06:54:46.732Z,89.42
2023-05-07T06:55:46.481Z,89.32
2023-05-07T06:56:46.788Z,89.22
2023-05-07T06:57:47.897Z,89.12
2023-05-07T06:58:46.436Z,89.12
2023-05-07T06:59:46.473Z,89.01
2023-05-07T07:00:46.428Z,89.01
2023-05-07T07:01:46.502Z,88.92
2023-05-07T07:02:46.528Z,88.87
2023-05-07T07:03:47.842Z,88.67
2023-05-07T07:04:46.505Z,88.47
2023-05-07T07:05:46.348Z,88.37
2023-05-07T07:06:46.357Z,88.26
2023-05-07T07:07:46.393Z,88.06
2023-05-07T07:08:46.348Z,87.96
2023-05-07T07:09:46.322Z,87.86
2023-05-07T07:10:46.312Z,87.86
2023-05-07T07:11:46.300Z,87.66
2023-05-07T07:12:47.267Z,87.62
2023-05-07T07:13:46.316Z,87.41
2023-05-07T07:14:46.316Z,87.32
2023-05-07T07:15:46.330Z,87.12
2023-05-07T07:16:46.254Z,87.01
2023-05-07T07:17:46.316Z,86.91
2023-05-07T07:18:46.226Z,86.81
2023-05-07T07:19:47.201Z,86.71
2023-05-07T07:20:47.702Z,86.61
2023-05-07T07:21:46.174Z,86.41
2023-05-07T07:22:47.132Z,86.16
2023-05-07T07:23:47.624Z,86.07
2023-05-07T07:24:48.111Z,85.86
2023-05-07T07:25:46.150Z,85.76
2023-05-07T07:26:46.138Z,85.56
2023-05-07T07:27:46.792Z,85.56
2023-05-07T07:28:47.576Z,85.46
2023-05-07T07:29:46.142Z,85.36
2023-05-07T07:30:46.104Z,85.36
2023-05-07T07:31:47.140Z,85.25
2023-05-07T07:32:46.107Z,85.25
2023-05-07T07:33:47.061Z,85.22
2023-05-07T07:34:46.047Z,85.11
2023-05-07T07:35:47.519Z,85.02
2023-05-07T07:36:47.211Z,84.81
2023-05-07T07:37:46.000Z,84.71
2023-05-07T07:38:46.012Z,84.61
2023-05-07T07:39:46.007Z,84.51
2023-05-07T07:40:45.987Z,84.41
2023-05-07T07:41:45.967Z,84.27
2023-05-07T07:42:45.953Z,84.07
2023-05-07T07:43:45.944Z,83.76
2023-05-07T07:44:45.930Z,83.36
2023-05-07T07:45:45.946Z,83.16
2023-05-07T07:46:46.008Z,82.96
2023-05-07T07:47:45.923Z,82.71
2023-05-07T07:48:45.882Z,82.71
2023-05-07T07:49:45.920Z,82.51
2023-05-07T07:50:46.445Z,82.11
2023-05-07T07:51:45.888Z,81.91
2023-05-07T07:52:45.824Z,81.47
2023-05-07T07:53:45.821Z,81.17
2023-05-07T07:54:45.809Z,80.97
2023-05-07T07:55:45.858Z,80.77
2023-05-07T07:56:45.916Z,80.66
2023-05-07T07:57:45.806Z,80.52
2023-05-07T07:58:45.778Z,80.22
2023-05-07T07:59:45.771Z,79.92
2023-05-07T08:00:45.754Z,79.72
2023-05-07T08:01:45.798Z,79.52
2023-05-07T08:02:45.860Z,79.38
2023-05-07T08:03:46.760Z,79.18
2023-05-07T08:04:45.721Z,79.18
2023-05-07T08:05:45.673Z,79.14
2023-05-07T08:06:45.951Z,79.04
2023-05-07T08:07:45.653Z,78.54
2023-05-07T08:08:45.669Z,78.23
2023-05-07T08:09:45.961Z,77.83
2023-05-07T08:10:45.647Z,77.70
2023-05-07T08:11:46.608Z,77.59
2023-05-07T08:12:45.629Z,77.50
2023-05-07T08:13:45.611Z,77.20
2023-05-07T08:14:48.016Z,77.00
2023-05-07T08:15:45.586Z,77.00
2023-05-07T08:16:45.654Z,76.96
2023-05-07T08:17:45.644Z,77.16
2023-05-07T08:18:45.597Z,76.96
2023-05-07T08:19:45.545Z,76.86
2023-05-07T08:20:45.577Z,76.76
2023-05-07T08:21:45.550Z,76.56
2023-05-07T08:22:45.536Z,76.32
2023-05-07T08:23:45.511Z,76.21
2023-05-07T08:24:46.439Z,76.21
2023-05-07T08:25:45.612Z,76.21
2023-05-07T08:27:45.550Z,76.02
2023-05-07T08:28:45.489Z,75.82
2023-05-07T08:29:45.441Z,75.92
2023-05-07T08:30:45.556Z,76.02
2023-05-07T08:31:45.465Z,75.92
2023-05-07T08:32:45.475Z,75.42
2023-05-07T08:33:45.379Z,75.01
2023-05-07T08:34:45.410Z,74.91
2023-05-07T08:35:45.372Z,74.81
2023-05-07T08:36:45.361Z,74.81
2023-05-07T08:37:45.344Z,74.91
2023-05-07T08:38:45.333Z,75.01
2023-05-07T08:39:45.345Z,75.01
2023-05-07T08:40:45.647Z,75.21
2023-05-07T08:41:45.302Z,75.08
2023-05-07T08:42:45.292Z,74.68
2023-05-07T08:43:45.322Z,74.48
2023-05-07T08:44:46.203Z,74.37
2023-05-07T08:45:45.284Z,74.27
2023-05-07T08:46:45.588Z,74.27
2023-05-07T08:47:45.303Z,74.27
2023-05-07T08:48:45.240Z,74.18
2023-05-07T08:49:45.266Z,74.04
2023-05-07T08:50:46.198Z,73.94
2023-05-07T08:51:45.995Z,73.84
2023-05-07T08:52:45.220Z,73.74
2023-05-07T08:53:48.143Z,73.84
2023-05-07T08:54:45.805Z,73.54
2023-05-07T08:55:45.180Z,72.94
2023-05-07T08:56:45.329Z,73.03
2023-05-07T08:57:45.725Z,73.24
2023-05-07T08:58:45.128Z,73.54
2023-05-07T08:59:46.059Z,74.04
2023-05-07T09:00:45.122Z,73.94
2023-05-07T09:01:45.247Z,73.94
2023-05-07T09:02:45.110Z,74.04
2023-05-07T09:03:45.111Z,74.04
2023-05-07T09:04:45.054Z,73.80
2023-05-07T09:05:45.042Z,73.30
2023-05-07T09:06:45.032Z,73.30
2023-05-07T09:07:45.471Z,73.20
2023-05-07T09:08:45.008Z,73.27
2023-05-07T09:09:44.981Z,73.27
2023-05-07T09:10:45.116Z,73.16
2023-05-07T09:11:45.867Z,72.83
2023-05-07T09:12:45.016Z,72.53
2023-05-07T09:13:44.950Z,71.93
2023-05-07T09:14:44.952Z,71.43
2023-05-07T09:15:45.000Z,71.00
2023-05-07T09:16:45.776Z,70.79
2023-05-07T09:17:45.172Z,70.79
2023-05-07T09:18:44.908Z,70.79
2023-05-07T09:19:44.886Z,70.66
2023-05-07T09:20:44.872Z,70.26
2023-05-07T09:21:44.928Z,69.76
2023-05-07T09:22:44.868Z,69.46
2023-05-07T09:23:44.848Z,69.56
2023-05-07T09:24:44.855Z,69.66
2023-05-07T09:25:44.846Z,69.96
2023-05-07T09:26:44.808Z,70.23
2023-05-07T09:27:44.814Z,70.12
2023-05-07T09:28:44.812Z,69.93
2023-05-07T09:29:44.776Z,69.73
2023-05-07T09:30:44.757Z,69.82
2023-05-07T09:31:44.805Z,69.62
2023-05-07T09:32:45.781Z,69.23
2023-05-07T09:33:44.746Z,68.82
2023-05-07T09:34:44.734Z,68.62
2023-05-07T09:35:44.723Z,68.62
2023-05-07T09:36:44.702Z,67.22
2023-05-07T09:37:44.811Z,66.32
2023-05-07T09:38:44.873Z,66.32
2023-05-07T09:39:44.654Z,66.42
2023-05-07T09:40:44.647Z,66.29
2023-05-07T09:41:44.637Z,66.29
2023-05-07T09:42:44.677Z,66.59
2023-05-07T09:43:44.628Z,66.69
2023-05-07T09:44:44.711Z,66.46
2023-05-07T09:45:45.605Z,66.16
2023-05-07T09:46:44.593Z,66.06
2023-05-07T09:47:44.757Z,66.26
2023-05-07T09:48:44.610Z,66.53
2023-05-07T09:49:44.578Z,66.63
2023-05-07T09:50:44.581Z,66.23
2023-05-07T09:51:44.605Z,65.83
2023-05-07T09:52:44.523Z,65.53
2023-05-07T09:53:45.198Z,65.43
2023-05-07T09:54:44.494Z,65.43
2023-05-07T09:55:44.484Z,65.63
2023-05-07T09:56:44.631Z,65.53
2023-05-07T09:57:44.452Z,65.53
2023-05-07T09:58:44.455Z,65.63
2023-05-07T09:59:44.437Z,65.63
2023-05-07T10:00:44.449Z,65.73
2023-05-07T10:01:44.488Z,65.83
2023-05-07T10:02:46.160Z,66.03
2023-05-07T10:03:45.998Z,66.13
2023-05-07T10:04:44.391Z,65.43
2023-05-07T10:05:44.384Z,64.83
2023-05-07T10:06:44.355Z,64.43
2023-05-07T10:07:44.400Z,64.43
2023-05-07T10:08:44.357Z,65.03
2023-05-07T10:09:44.315Z,65.43
2023-05-07T10:10:44.318Z,65.53
2023-05-07T10:11:44.354Z,65.33
2023-05-07T10:12:44.347Z,65.40
2023-05-07T10:13:44.667Z,65.60
2023-05-07T10:14:44.278Z,65.30
2023-05-07T10:15:44.265Z,63.80
2023-05-07T10:16:44.267Z,63.10
2023-05-07T10:17:44.295Z,63.00
2023-05-07T10:18:44.627Z,63.00
2023-05-07T10:19:44.221Z,62.90
2023-05-07T10:20:44.204Z,63.00
2023-05-07T10:21:44.197Z,63.00
2023-05-07T10:22:44.220Z,63.10
2023-05-07T10:23:44.161Z,63.50
2023-05-07T10:24:44.175Z,63.90
2023-05-07T10:25:44.168Z,64.40
2023-05-07T10:26:44.167Z,64.60
2023-05-07T10:27:45.111Z,64.70
2023-05-07T10:28:44.130Z,64.30
2023-05-07T10:29:44.117Z,63.90
2023-05-07T10:30:44.966Z,63.80
2023-05-07T10:31:44.169Z,63.80
2023-05-07T10:32:44.144Z,64.10
2023-05-07T10:33:45.212Z,64.20
2023-05-07T10:34:44.090Z,64.60
2023-05-07T10:35:45.518Z,64.37
2023-05-07T10:36:45.531Z,64.17
2023-05-07T10:37:45.495Z,64.17
2023-05-07T10:38:44.042Z,64.27
2023-05-07T10:39:45.503Z,64.27
2023-05-07T10:40:43.992Z,64.27
2023-05-07T10:41:45.427Z,63.87
2023-05-07T10:42:44.007Z,63.47
2023-05-07T10:43:45.487Z,63.24
2023-05-07T10:44:44.787Z,63.34
2023-05-07T10:45:44.152Z,63.54
2023-05-07T10:46:45.461Z,63.74
2023-05-07T10:47:45.417Z,63.84
2023-05-07T10:48:43.913Z,63.74
2023-05-07T10:49:45.400Z,63.21
2023-05-07T10:50:44.182Z,62.51
2023-05-07T10:51:43.940Z,62.21
2023-05-07T10:52:43.869Z,61.71
2023-05-07T10:53:43.866Z,60.95
2023-05-07T10:54:43.854Z,60.25
2023-05-07T10:55:43.901Z,60.35
2023-05-07T10:56:44.029Z,60.55
2023-05-07T10:57:43.835Z,60.25
2023-05-07T10:58:43.824Z,59.85
2023-05-07T10:59:43.999Z,59.85
2023-05-07T11:00:45.302Z,60.05
2023-05-07T11:01:45.272Z,60.45
2023-05-07T11:02:43.831Z,60.75
2023-05-07T11:03:43.736Z,61.22
2023-05-07T11:04:45.198Z,61.32
2023-05-07T11:05:43.874Z,61.41
2023-05-07T11:06:44.550Z,61.19
2023-05-07T11:07:44.553Z,60.89
2023-05-07T11:08:43.691Z,60.39
2023-05-07T11:09:43.674Z,60.19
2023-05-07T11:10:45.155Z,60.09
2023-05-07T11:11:43.646Z,59.79
2023-05-07T11:12:43.800Z,59.99
2023-05-07T11:13:43.645Z,60.29
2023-05-07T11:14:43.607Z,60.79
2023-05-07T11:15:43.641Z,60.66
2023-05-07T11:16:43.745Z,60.69
2023-05-07T11:17:43.603Z,60.89
2023-05-07T11:18:43.588Z,60.99
2023-05-07T11:19:45.032Z,60.99
2023-05-07T11:20:43.542Z,61.19
2023-05-07T11:21:44.389Z,61.09
2023-05-07T11:22:43.535Z,61.09
2023-05-07T11:23:44.126Z,61.09
2023-05-07T11:24:43.553Z,60.79
2023-05-07T11:25:43.503Z,60.52
2023-05-07T11:26:43.719Z,59.62
2023-05-07T11:27:43.473Z,59.72
2023-05-07T11:28:43.517Z,60.02
2023-05-07T11:29:44.317Z,60.72
2023-05-07T11:30:44.328Z,60.92
2023-05-07T11:31:44.961Z,61.02
2023-05-07T11:32:43.566Z,61.22
2023-05-07T11:33:44.886Z,61.39
2023-05-07T11:34:44.377Z,60.62
2023-05-07T11:35:44.856Z,60.12
2023-05-07T11:36:44.404Z,59.92
2023-05-07T11:37:44.230Z,59.89
2023-05-07T11:38:43.402Z,60.09
2023-05-07T11:39:43.357Z,60.19
2023-05-07T11:40:43.363Z,60.29
2023-05-07T11:41:44.851Z,60.09
2023-05-07T11:42:44.768Z,59.89
2023-05-07T11:43:44.270Z,59.89
2023-05-07T11:44:45.293Z,59.79
2023-05-07T11:45:44.173Z,59.59
2023-05-07T11:46:43.269Z,59.82
2023-05-07T11:47:44.777Z,59.92
2023-05-07T11:48:43.273Z,59.92
2023-05-07T11:49:44.700Z,60.02
2023-05-07T11:50:43.258Z,59.92
2023-05-07T11:51:44.689Z,59.75
2023-05-07T11:52:44.200Z,59.85
2023-05-07T11:53:43.207Z,60.45
2023-05-07T11:54:43.986Z,60.55
2023-05-07T11:55:43.193Z,60.35
2023-05-07T11:56:43.187Z,60.35
2023-05-07T11:57:43.216Z,60.48
2023-05-07T11:58:43.189Z,60.58
2023-05-07T11:59:43.180Z,60.88
2023-05-07T12:00:43.123Z,61.18
2023-05-07T12:01:44.589Z,61.57
2023-05-07T12:02:44.661Z,61.87
2023-05-07T12:03:43.164Z,61.87
2023-05-07T12:04:43.140Z,61.98
2023-05-07T12:05:43.908Z,62.07
2023-05-07T12:06:43.045Z,62.18
2023-05-07T12:07:44.521Z,62.48
2023-05-07T12:08:43.647Z,62.48
2023-05-07T12:09:43.047Z,62.67
2023-05-07T12:10:43.068Z,62.67
2023-05-07T12:11:43.009Z,62.87
2023-05-07T12:12:44.475Z,62.87
2023-05-07T12:13:42.978Z,62.77
2023-05-07T12:14:42.968Z,62.57
2023-05-07T12:15:42.984Z,62.77
2023-05-07T12:16:43.046Z,62.77
2023-05-07T12:17:42.988Z,62.97
2023-05-07T12:18:44.423Z,62.97
2023-05-07T12:19:42.915Z,62.87
2023-05-07T12:20:42.903Z,62.27
2023-05-07T12:21:43.123Z,61.87
2023-05-07T12:22:43.131Z,61.87
2023-05-07T12:23:42.900Z,61.77
2023-05-07T12:24:42.918Z,62.07
2023-05-07T12:25:43.542Z,62.27
2023-05-07T12:26:42.846Z,62.57
2023-05-07T12:27:43.714Z,62.97
2023-05-07T12:28:43.780Z,63.20
2023-05-07T12:29:42.847Z,63.10
2023-05-07T12:30:42.973Z,63.00
2023-05-07T12:31:42.849Z,62.90
2023-05-07T12:32:43.622Z,63.10
2023-05-07T12:33:42.775Z,63.30
2023-05-07T12:34:45.287Z,64.20
2023-05-07T12:35:44.231Z,64.30
2023-05-07T12:36:42.745Z,64.43
2023-05-07T12:37:43.515Z,64.43
2023-05-07T12:38:42.755Z,64.43
2023-05-07T12:39:42.703Z,64.43
2023-05-07T12:40:42.710Z,64.43
2023-05-07T12:41:42.686Z,64.43
2023-05-07T12:42:42.692Z,64.43
2023-05-07T12:43:43.660Z,64.53
2023-05-07T12:44:42.733Z,64.53
2023-05-07T12:45:43.438Z,64.56
2023-05-07T12:46:44.094Z,64.36
2023-05-07T12:47:42.657Z,64.16
2023-05-07T12:48:43.442Z,64.16
2023-05-07T12:49:44.092Z,64.36
2023-05-07T12:50:42.623Z,64.66
2023-05-07T12:51:42.600Z,64.86
2023-05-07T12:52:43.354Z,64.96
2023-05-07T12:53:44.017Z,64.96
2023-05-07T12:54:44.595Z,64.86